sensor_id;sensor_type;location;lat;lon;timestamp;P1;durP1;ratioP1;P2;durP2;ratioP2
32780;SDS011;19136;47.032;15.502;2023-03-22T00:00:37;7.90;;;3.88;;
32780;SDS011;19136;47.032;15.502;2023-03-22T00:03:03;7.93;;;3.78;;
32780;SDS011;19136;47.032;15.502;2023-03-22T00:05:30;9.90;;;3.60;;
32780;SDS011;19136;47.032;15.502;2023-03-22T00:07:56;16.00;;;3.80;;
32780;SDS011;19136;47.032;15.502;2023-03-22T00:10:23;9.10;;;4.25;;
32780;SDS011;19136;47.032;15.502;2023-03-22T00:12:53;11.73;;;4.00;;
32780;SDS011;19136;47.032;15.502;2023-03-22T00:15:19;6.68;;;3.65;;
32780;SDS011;19136;47.032;15.502;2023-03-22T00:17:45;8.90;;;4.00;;
32780;SDS011;19136;47.032;15.502;2023-03-22T00:20:11;8.25;;;4.28;;
32780;SDS011;19136;47.032;15.502;2023-03-22T00:22:37;8.85;;;3.70;;
32780;SDS011;19136;47.032;15.502;2023-03-22T00:25:04;7.60;;;4.05;;
32780;SDS011;19136;47.032;15.502;2023-03-22T00:27:30;10.70;;;3.75;;
32780;SDS011;19136;47.032;15.502;2023-03-22T00:29:56;8.70;;;3.80;;
32780;SDS011;19136;47.032;15.502;2023-03-22T00:32:23;11.13;;;5.03;;
32780;SDS011;19136;47.032;15.502;2023-03-22T00:34:49;6.28;;;3.72;;
32780;SDS011;19136;47.032;15.502;2023-03-22T00:37:15;8.75;;;4.05;;
32780;SDS011;19136;47.032;15.502;2023-03-22T00:39:42;8.98;;;4.18;;
32780;SDS011;19136;47.032;15.502;2023-03-22T00:42:08;10.88;;;4.20;;
32780;SDS011;19136;47.032;15.502;2023-03-22T00:44:34;7.88;;;3.95;;
32780;SDS011;19136;47.032;15.502;2023-03-22T00:47:00;10.25;;;3.67;;
32780;SDS011;19136;47.032;15.502;2023-03-22T00:49:26;6.95;;;3.55;;
32780;SDS011;19136;47.032;15.502;2023-03-22T00:51:51;7.47;;;3.72;;
32780;SDS011;19136;47.032;15.502;2023-03-22T00:54:17;6.65;;;3.47;;
32780;SDS011;19136;47.032;15.502;2023-03-22T00:56:44;7.75;;;3.08;;
32780;SDS011;19136;47.032;15.502;2023-03-22T00:59:12;7.35;;;3.10;;
32780;SDS011;19136;47.032;15.502;2023-03-22T01:01:39;7.82;;;3.17;;
32780;SDS011;19136;47.032;15.502;2023-03-22T01:04:04;6.75;;;3.80;;
32780;SDS011;19136;47.032;15.502;2023-03-22T01:06:31;7.13;;;3.75;;
32780;SDS011;19136;47.032;15.502;2023-03-22T01:08:57;9.43;;;3.33;;
32780;SDS011;19136;47.032;15.502;2023-03-22T01:11:23;13.88;;;3.17;;
32780;SDS011;19136;47.032;15.502;2023-03-22T01:13:49;8.52;;;3.83;;
32780;SDS011;19136;47.032;15.502;2023-03-22T01:16:16;8.50;;;3.47;;
32780;SDS011;19136;47.032;15.502;2023-03-22T01:18:42;7.93;;;3.53;;
32780;SDS011;19136;47.032;15.502;2023-03-22T01:21:08;6.95;;;3.42;;
32780;SDS011;19136;47.032;15.502;2023-03-22T01:23:35;9.73;;;3.47;;
32780;SDS011;19136;47.032;15.502;2023-03-22T01:26:01;5.88;;;2.92;;
32780;SDS011;19136;47.032;15.502;2023-03-22T01:28:27;8.25;;;3.80;;
32780;SDS011;19136;47.032;15.502;2023-03-22T01:30:54;6.97;;;3.53;;
32780;SDS011;19136;47.032;15.502;2023-03-22T01:33:20;7.65;;;3.10;;
32780;SDS011;19136;47.032;15.502;2023-03-22T01:35:46;7.80;;;3.75;;
32780;SDS011;19136;47.032;15.502;2023-03-22T01:38:12;9.93;;;3.53;;
32780;SDS011;19136;47.032;15.502;2023-03-22T01:40:47;6.47;;;3.05;;
32780;SDS011;19136;47.032;15.502;2023-03-22T01:43:13;7.43;;;3.47;;
32780;SDS011;19136;47.032;15.502;2023-03-22T01:45:41;6.63;;;3.33;;
32780;SDS011;19136;47.032;15.502;2023-03-22T01:48:14;6.68;;;3.28;;
32780;SDS011;19136;47.032;15.502;2023-03-22T01:53:56;10.57;;;4.25;;
32780;SDS011;19136;47.032;15.502;2023-03-22T01:56:25;7.70;;;4.03;;
32780;SDS011;19136;47.032;15.502;2023-03-22T01:58:53;9.65;;;3.75;;
32780;SDS011;19136;47.032;15.502;2023-03-22T02:01:24;10.35;;;3.38;;
32780;SDS011;19136;47.032;15.502;2023-03-22T02:04:09;5.85;;;3.13;;
32780;SDS011;19136;47.032;15.502;2023-03-22T02:06:37;7.85;;;3.50;;
32780;SDS011;19136;47.032;15.502;2023-03-22T02:09:10;9.93;;;3.63;;
32780;SDS011;19136;47.032;15.502;2023-03-22T02:11:39;8.35;;;3.22;;
32780;SDS011;19136;47.032;15.502;2023-03-22T02:30:53;7.95;;;3.40;;
32780;SDS011;19136;47.032;15.502;2023-03-22T02:33:39;8.38;;;3.55;;
32780;SDS011;19136;47.032;15.502;2023-03-22T02:41:35;5.18;;;3.20;;
32780;SDS011;19136;47.032;15.502;2023-03-22T02:44:07;5.90;;;2.92;;
32780;SDS011;19136;47.032;15.502;2023-03-22T02:46:42;9.35;;;3.45;;
32780;SDS011;19136;47.032;15.502;2023-03-22T02:49:13;10.18;;;3.78;;
32780;SDS011;19136;47.032;15.502;2023-03-22T02:51:44;10.03;;;4.17;;
32780;SDS011;19136;47.032;15.502;2023-03-22T02:56:54;10.38;;;3.88;;
32780;SDS011;19136;47.032;15.502;2023-03-22T02:59:25;4.95;;;3.22;;
32780;SDS011;19136;47.032;15.502;2023-03-22T03:01:53;6.85;;;3.40;;
32780;SDS011;19136;47.032;15.502;2023-03-22T03:04:24;8.10;;;3.13;;
32780;SDS011;19136;47.032;15.502;2023-03-22T03:06:54;9.52;;;3.70;;
32780;SDS011;19136;47.032;15.502;2023-03-22T03:09:22;9.02;;;3.65;;
32780;SDS011;19136;47.032;15.502;2023-03-22T03:11:50;10.90;;;3.75;;
32780;SDS011;19136;47.032;15.502;2023-03-22T03:14:21;6.45;;;2.95;;
32780;SDS011;19136;47.032;15.502;2023-03-22T03:19:44;7.60;;;3.15;;
32780;SDS011;19136;47.032;15.502;2023-03-22T03:25:12;5.88;;;3.10;;
32780;SDS011;19136;47.032;15.502;2023-03-22T03:28:34;8.38;;;3.17;;
32780;SDS011;19136;47.032;15.502;2023-03-22T03:30:38;7.75;;;3.22;;
32780;SDS011;19136;47.032;15.502;2023-03-22T03:33:14;6.35;;;2.90;;
32780;SDS011;19136;47.032;15.502;2023-03-22T03:36:00;6.55;;;3.13;;
32780;SDS011;19136;47.032;15.502;2023-03-22T03:38:28;8.07;;;3.22;;
32780;SDS011;19136;47.032;15.502;2023-03-22T03:41:05;6.30;;;3.08;;
32780;SDS011;19136;47.032;15.502;2023-03-22T03:43:33;6.68;;;3.40;;
32780;SDS011;19136;47.032;15.502;2023-03-22T03:45:59;4.80;;;2.88;;
32780;SDS011;19136;47.032;15.502;2023-03-22T03:48:28;9.40;;;3.15;;
32780;SDS011;19136;47.032;15.502;2023-03-22T03:50:55;6.63;;;3.20;;
32780;SDS011;19136;47.032;15.502;2023-03-22T03:53:22;10.02;;;3.08;;
32780;SDS011;19136;47.032;15.502;2023-03-22T03:55:47;7.43;;;3.20;;
32780;SDS011;19136;47.032;15.502;2023-03-22T03:58:14;6.78;;;2.95;;
32780;SDS011;19136;47.032;15.502;2023-03-22T04:00:44;9.48;;;3.35;;
32780;SDS011;19136;47.032;15.502;2023-03-22T04:03:31;5.18;;;2.92;;
32780;SDS011;19136;47.032;15.502;2023-03-22T04:06:02;7.68;;;3.42;;
32780;SDS011;19136;47.032;15.502;2023-03-22T04:08:31;9.07;;;3.50;;
32780;SDS011;19136;47.032;15.502;2023-03-22T04:10:57;6.78;;;3.38;;
32780;SDS011;19136;47.032;15.502;2023-03-22T04:13:23;13.35;;;3.42;;
32780;SDS011;19136;47.032;15.502;2023-03-22T04:15:53;6.18;;;3.13;;
32780;SDS011;19136;47.032;15.502;2023-03-22T04:18:22;6.95;;;3.00;;
32780;SDS011;19136;47.032;15.502;2023-03-22T04:20:48;9.65;;;3.28;;
32780;SDS011;19136;47.032;15.502;2023-03-22T04:23:18;8.93;;;3.40;;
32780;SDS011;19136;47.032;15.502;2023-03-22T04:25:46;8.65;;;3.30;;
32780;SDS011;19136;47.032;15.502;2023-03-22T04:28:16;8.25;;;3.45;;
32780;SDS011;19136;47.032;15.502;2023-03-22T04:30:44;5.25;;;3.10;;
32780;SDS011;19136;47.032;15.502;2023-03-22T04:33:29;7.63;;;3.05;;
32780;SDS011;19136;47.032;15.502;2023-03-22T04:36:23;4.57;;;2.58;;
32780;SDS011;19136;47.032;15.502;2023-03-22T04:39:06;14.07;;;4.20;;
32780;SDS011;19136;47.032;15.502;2023-03-22T04:41:33;11.63;;;3.78;;
32780;SDS011;19136;47.032;15.502;2023-03-22T04:44:00;9.15;;;3.42;;
32780;SDS011;19136;47.032;15.502;2023-03-22T04:46:30;7.35;;;3.28;;
32780;SDS011;19136;47.032;15.502;2023-03-22T04:49:02;8.25;;;3.30;;
32780;SDS011;19136;47.032;15.502;2023-03-22T04:51:32;8.88;;;3.33;;
32780;SDS011;19136;47.032;15.502;2023-03-22T04:54:17;6.93;;;3.33;;
32780;SDS011;19136;47.032;15.502;2023-03-22T04:56:43;12.68;;;5.40;;
32780;SDS011;19136;47.032;15.502;2023-03-22T04:59:10;10.18;;;3.90;;
32780;SDS011;19136;47.032;15.502;2023-03-22T05:01:36;13.18;;;3.92;;
32780;SDS011;19136;47.032;15.502;2023-03-22T05:06:35;10.38;;;3.45;;
32780;SDS011;19136;47.032;15.502;2023-03-22T05:09:07;7.28;;;3.25;;
32780;SDS011;19136;47.032;15.502;2023-03-22T05:11:34;7.03;;;3.35;;
32780;SDS011;19136;47.032;15.502;2023-03-22T05:14:35;16.30;;;3.40;;
32780;SDS011;19136;47.032;15.502;2023-03-22T05:17:02;12.35;;;3.50;;
32780;SDS011;19136;47.032;15.502;2023-03-22T05:19:32;12.77;;;3.60;;
32780;SDS011;19136;47.032;15.502;2023-03-22T05:21:59;8.60;;;3.35;;
32780;SDS011;19136;47.032;15.502;2023-03-22T05:24:39;7.82;;;3.40;;
32780;SDS011;19136;47.032;15.502;2023-03-22T05:27:09;9.73;;;4.55;;
32780;SDS011;19136;47.032;15.502;2023-03-22T05:29:35;8.38;;;3.20;;
32780;SDS011;19136;47.032;15.502;2023-03-22T05:32:08;10.60;;;3.55;;
32780;SDS011;19136;47.032;15.502;2023-03-22T05:34:34;15.05;;;3.28;;
32780;SDS011;19136;47.032;15.502;2023-03-22T05:37:07;8.50;;;3.60;;
32780;SDS011;19136;47.032;15.502;2023-03-22T05:40:02;4.88;;;3.20;;
32780;SDS011;19136;47.032;15.502;2023-03-22T05:42:35;13.18;;;3.55;;
32780;SDS011;19136;47.032;15.502;2023-03-22T05:45:13;12.55;;;3.58;;
32780;SDS011;19136;47.032;15.502;2023-03-22T05:47:41;7.85;;;3.72;;
32780;SDS011;19136;47.032;15.502;2023-03-22T05:50:14;15.57;;;4.20;;
32780;SDS011;19136;47.032;15.502;2023-03-22T05:52:41;8.95;;;3.35;;
32780;SDS011;19136;47.032;15.502;2023-03-22T05:55:34;10.88;;;3.95;;
32780;SDS011;19136;47.032;15.502;2023-03-22T05:58:02;18.98;;;4.40;;
32780;SDS011;19136;47.032;15.502;2023-03-22T06:00:30;22.45;;;4.70;;
32780;SDS011;19136;47.032;15.502;2023-03-22T06:03:19;12.80;;;4.05;;
32780;SDS011;19136;47.032;15.502;2023-03-22T06:05:51;13.48;;;4.32;;
32780;SDS011;19136;47.032;15.502;2023-03-22T06:08:21;20.83;;;3.80;;
32780;SDS011;19136;47.032;15.502;2023-03-22T06:10:48;8.02;;;3.70;;
32780;SDS011;19136;47.032;15.502;2023-03-22T06:13:15;19.27;;;4.20;;
32780;SDS011;19136;47.032;15.502;2023-03-22T06:15:42;27.77;;;6.50;;
32780;SDS011;19136;47.032;15.502;2023-03-22T06:18:10;32.42;;;7.45;;
32780;SDS011;19136;47.032;15.502;2023-03-22T06:20:40;20.08;;;7.10;;
32780;SDS011;19136;47.032;15.502;2023-03-22T06:23:12;15.48;;;7.15;;
32780;SDS011;19136;47.032;15.502;2023-03-22T06:25:38;26.95;;;6.72;;
32780;SDS011;19136;47.032;15.502;2023-03-22T06:28:04;25.77;;;6.45;;
32780;SDS011;19136;47.032;15.502;2023-03-22T06:30:30;36.15;;;7.50;;
32780;SDS011;19136;47.032;15.502;2023-03-22T06:33:16;22.15;;;6.07;;
32780;SDS011;19136;47.032;15.502;2023-03-22T06:35:46;24.58;;;6.45;;
32780;SDS011;19136;47.032;15.502;2023-03-22T06:38:17;18.63;;;5.47;;
32780;SDS011;19136;47.032;15.502;2023-03-22T06:40:43;21.20;;;5.75;;
32780;SDS011;19136;47.032;15.502;2023-03-22T06:43:09;20.27;;;6.60;;
32780;SDS011;19136;47.032;15.502;2023-03-22T06:45:38;12.65;;;5.90;;
32780;SDS011;19136;47.032;15.502;2023-03-22T06:48:04;25.08;;;6.15;;
32780;SDS011;19136;47.032;15.502;2023-03-22T06:50:50;15.15;;;5.15;;
32780;SDS011;19136;47.032;15.502;2023-03-22T06:53:23;31.08;;;6.32;;
32780;SDS011;19136;47.032;15.502;2023-03-22T06:55:49;12.55;;;4.80;;
32780;SDS011;19136;47.032;15.502;2023-03-22T06:58:18;16.27;;;7.30;;
32780;SDS011;19136;47.032;15.502;2023-03-22T07:00:43;16.55;;;5.20;;
32780;SDS011;19136;47.032;15.502;2023-03-22T07:03:09;22.83;;;6.03;;
32780;SDS011;19136;47.032;15.502;2023-03-22T07:05:43;15.88;;;5.97;;
32780;SDS011;19136;47.032;15.502;2023-03-22T07:08:08;21.27;;;6.20;;
32780;SDS011;19136;47.032;15.502;2023-03-22T07:10:40;21.85;;;5.65;;
32780;SDS011;19136;47.032;15.502;2023-03-22T07:13:06;26.77;;;6.22;;
32780;SDS011;19136;47.032;15.502;2023-03-22T07:15:33;16.00;;;5.70;;
32780;SDS011;19136;47.032;15.502;2023-03-22T07:18:03;27.95;;;6.85;;
32780;SDS011;19136;47.032;15.502;2023-03-22T07:20:32;16.15;;;5.47;;
32780;SDS011;19136;47.032;15.502;2023-03-22T07:23:01;18.15;;;5.80;;
32780;SDS011;19136;47.032;15.502;2023-03-22T07:25:31;20.05;;;5.97;;
32780;SDS011;19136;47.032;15.502;2023-03-22T07:28:10;11.80;;;5.65;;
32780;SDS011;19136;47.032;15.502;2023-03-22T07:30:37;17.52;;;5.75;;
32780;SDS011;19136;47.032;15.502;2023-03-22T07:33:03;14.70;;;5.50;;
32780;SDS011;19136;47.032;15.502;2023-03-22T07:35:30;23.80;;;6.03;;
32780;SDS011;19136;47.032;15.502;2023-03-22T07:37:56;17.70;;;5.30;;
32780;SDS011;19136;47.032;15.502;2023-03-22T07:40:27;17.60;;;6.18;;
32780;SDS011;19136;47.032;15.502;2023-03-22T07:42:54;12.25;;;5.30;;
32780;SDS011;19136;47.032;15.502;2023-03-22T07:45:32;19.13;;;5.70;;
32780;SDS011;19136;47.032;15.502;2023-03-22T07:48:17;17.13;;;5.40;;
32780;SDS011;19136;47.032;15.502;2023-03-22T07:51:03;15.52;;;6.10;;
32780;SDS011;19136;47.032;15.502;2023-03-22T07:53:30;16.77;;;6.05;;
32780;SDS011;19136;47.032;15.502;2023-03-22T07:55:56;16.42;;;5.60;;
32780;SDS011;19136;47.032;15.502;2023-03-22T07:58:21;17.83;;;5.50;;
32780;SDS011;19136;47.032;15.502;2023-03-22T08:00:47;25.85;;;6.57;;
32780;SDS011;19136;47.032;15.502;2023-03-22T08:03:36;18.70;;;6.50;;
32780;SDS011;19136;47.032;15.502;2023-03-22T08:06:12;24.30;;;6.53;;
32780;SDS011;19136;47.032;15.502;2023-03-22T08:08:37;21.23;;;6.15;;
32780;SDS011;19136;47.032;15.502;2023-03-22T08:11:06;15.38;;;5.50;;
32780;SDS011;19136;47.032;15.502;2023-03-22T08:13:33;16.92;;;6.13;;
32780;SDS011;19136;47.032;15.502;2023-03-22T08:15:58;28.42;;;6.65;;
32780;SDS011;19136;47.032;15.502;2023-03-22T08:18:25;15.68;;;6.10;;
32780;SDS011;19136;47.032;15.502;2023-03-22T08:20:52;19.73;;;6.30;;
32780;SDS011;19136;47.032;15.502;2023-03-22T08:23:19;21.33;;;7.70;;
32780;SDS011;19136;47.032;15.502;2023-03-22T08:25:45;20.77;;;6.32;;
32780;SDS011;19136;47.032;15.502;2023-03-22T08:28:11;22.13;;;6.20;;
32780;SDS011;19136;47.032;15.502;2023-03-22T08:30:38;21.77;;;6.32;;
32780;SDS011;19136;47.032;15.502;2023-03-22T08:33:04;27.73;;;6.20;;
32780;SDS011;19136;47.032;15.502;2023-03-22T08:35:32;21.02;;;5.68;;
32780;SDS011;19136;47.032;15.502;2023-03-22T08:37:58;19.92;;;5.22;;
32780;SDS011;19136;47.032;15.502;2023-03-22T08:40:31;17.25;;;5.38;;
32780;SDS011;19136;47.032;15.502;2023-03-22T08:42:59;13.68;;;6.30;;
32780;SDS011;19136;47.032;15.502;2023-03-22T08:45:27;21.05;;;6.10;;
32780;SDS011;19136;47.032;15.502;2023-03-22T08:48:00;13.07;;;5.93;;
32780;SDS011;19136;47.032;15.502;2023-03-22T08:50:27;20.40;;;5.00;;
32780;SDS011;19136;47.032;15.502;2023-03-22T08:53:06;11.90;;;5.13;;
32780;SDS011;19136;47.032;15.502;2023-03-22T08:55:33;23.58;;;6.88;;
32780;SDS011;19136;47.032;15.502;2023-03-22T08:58:14;16.27;;;5.60;;
32780;SDS011;19136;47.032;15.502;2023-03-22T09:00:52;10.32;;;4.55;;
32780;SDS011;19136;47.032;15.502;2023-03-22T09:03:23;15.82;;;5.47;;
32780;SDS011;19136;47.032;15.502;2023-03-22T09:05:49;20.92;;;5.40;;
32780;SDS011;19136;47.032;15.502;2023-03-22T09:08:15;18.02;;;5.50;;
32780;SDS011;19136;47.032;15.502;2023-03-22T09:10:44;15.35;;;5.47;;
32780;SDS011;19136;47.032;15.502;2023-03-22T09:13:15;20.13;;;5.68;;
32780;SDS011;19136;47.032;15.502;2023-03-22T09:15:49;16.92;;;5.35;;
32780;SDS011;19136;47.032;15.502;2023-03-22T09:18:21;20.25;;;5.13;;
32780;SDS011;19136;47.032;15.502;2023-03-22T09:20:49;11.98;;;5.13;;
32780;SDS011;19136;47.032;15.502;2023-03-22T09:23:19;19.98;;;5.63;;
32780;SDS011;19136;47.032;15.502;2023-03-22T09:25:45;19.63;;;4.72;;
32780;SDS011;19136;47.032;15.502;2023-03-22T09:28:13;15.27;;;5.32;;
32780;SDS011;19136;47.032;15.502;2023-03-22T09:30:39;10.73;;;4.40;;
32780;SDS011;19136;47.032;15.502;2023-03-22T09:33:07;17.92;;;4.82;;
32780;SDS011;19136;47.032;15.502;2023-03-22T09:35:34;16.25;;;4.38;;
32780;SDS011;19136;47.032;15.502;2023-03-22T09:38:05;13.25;;;4.43;;
32780;SDS011;19136;47.032;15.502;2023-03-22T09:40:31;10.23;;;4.43;;
32780;SDS011;19136;47.032;15.502;2023-03-22T09:43:00;14.30;;;4.07;;
32780;SDS011;19136;47.032;15.502;2023-03-22T09:45:33;14.20;;;4.00;;
32780;SDS011;19136;47.032;15.502;2023-03-22T09:48:03;15.93;;;4.15;;
32780;SDS011;19136;47.032;15.502;2023-03-22T09:50:32;12.48;;;4.30;;
32780;SDS011;19136;47.032;15.502;2023-03-22T09:52:58;17.20;;;4.68;;
32780;SDS011;19136;47.032;15.502;2023-03-22T09:55:29;13.73;;;4.65;;
32780;SDS011;19136;47.032;15.502;2023-03-22T10:05:58;15.35;;;5.70;;
32780;SDS011;19136;47.032;15.502;2023-03-22T10:09:28;16.42;;;5.95;;
32780;SDS011;19136;47.032;15.502;2023-03-22T10:16:55;11.25;;;5.55;;
32780;SDS011;19136;47.032;15.502;2023-03-22T10:19:26;11.75;;;5.40;;
32780;SDS011;19136;47.032;15.502;2023-03-22T10:21:55;11.10;;;5.63;;
32780;SDS011;19136;47.032;15.502;2023-03-22T10:24:26;17.02;;;5.80;;
32780;SDS011;19136;47.032;15.502;2023-03-22T10:26:54;14.23;;;6.30;;
32780;SDS011;19136;47.032;15.502;2023-03-22T10:29:39;12.00;;;5.30;;
32780;SDS011;19136;47.032;15.502;2023-03-22T10:35:02;11.57;;;4.70;;
32780;SDS011;19136;47.032;15.502;2023-03-22T10:37:31;9.95;;;4.25;;
32780;SDS011;19136;47.032;15.502;2023-03-22T10:39:58;9.30;;;4.80;;
32780;SDS011;19136;47.032;15.502;2023-03-22T10:42:34;12.90;;;4.50;;
32780;SDS011;19136;47.032;15.502;2023-03-22T10:45:06;8.95;;;4.65;;
32780;SDS011;19136;47.032;15.502;2023-03-22T10:47:37;8.15;;;3.95;;
32780;SDS011;19136;47.032;15.502;2023-03-22T10:50:06;16.30;;;5.07;;
32780;SDS011;19136;47.032;15.502;2023-03-22T10:52:50;13.20;;;4.80;;
32780;SDS011;19136;47.032;15.502;2023-03-22T10:55:28;12.55;;;5.60;;
32780;SDS011;19136;47.032;15.502;2023-03-22T10:58:00;14.63;;;5.05;;
32780;SDS011;19136;47.032;15.502;2023-03-22T11:00:46;16.25;;;5.15;;
32780;SDS011;19136;47.032;15.502;2023-03-22T11:06:16;9.85;;;4.40;;
32780;SDS011;19136;47.032;15.502;2023-03-22T11:08:50;16.05;;;5.53;;
32780;SDS011;19136;47.032;15.502;2023-03-22T11:11:28;6.10;;;4.10;;
32780;SDS011;19136;47.032;15.502;2023-03-22T11:16:26;11.07;;;4.32;;
32780;SDS011;19136;47.032;15.502;2023-03-22T11:18:53;9.18;;;4.78;;
32780;SDS011;19136;47.032;15.502;2023-03-22T11:21:21;8.98;;;4.68;;
32780;SDS011;19136;47.032;15.502;2023-03-22T11:23:54;7.35;;;4.57;;
32780;SDS011;19136;47.032;15.502;2023-03-22T11:26:27;9.93;;;4.28;;
32780;SDS011;19136;47.032;15.502;2023-03-22T11:29:05;13.95;;;5.05;;
32780;SDS011;19136;47.032;15.502;2023-03-22T11:34:20;9.32;;;4.80;;
32780;SDS011;19136;47.032;15.502;2023-03-22T11:36:46;8.63;;;4.30;;
32780;SDS011;19136;47.032;15.502;2023-03-22T11:39:19;9.25;;;4.75;;
32780;SDS011;19136;47.032;15.502;2023-03-22T11:41:49;9.60;;;3.80;;
32780;SDS011;19136;47.032;15.502;2023-03-22T11:44:15;13.27;;;4.25;;
32780;SDS011;19136;47.032;15.502;2023-03-22T11:46:50;11.13;;;4.07;;
32780;SDS011;19136;47.032;15.502;2023-03-22T11:49:18;8.52;;;4.10;;
32780;SDS011;19136;47.032;15.502;2023-03-22T11:51:45;16.20;;;3.40;;
32780;SDS011;19136;47.032;15.502;2023-03-22T11:56:41;7.85;;;3.55;;
32780;SDS011;19136;47.032;15.502;2023-03-22T11:59:16;24.15;;;4.07;;
32780;SDS011;19136;47.032;15.502;2023-03-22T12:04:19;6.47;;;3.20;;
32780;SDS011;19136;47.032;15.502;2023-03-22T12:06:48;7.05;;;2.65;;
32780;SDS011;19136;47.032;15.502;2023-03-22T12:11:47;8.35;;;2.65;;
32780;SDS011;19136;47.032;15.502;2023-03-22T12:17:27;9.88;;;3.30;;
32780;SDS011;19136;47.032;15.502;2023-03-22T12:22:12;6.80;;;2.95;;
32780;SDS011;19136;47.032;15.502;2023-03-22T12:24:39;6.93;;;3.05;;
32780;SDS011;19136;47.032;15.502;2023-03-22T12:27:15;3.78;;;2.72;;
32780;SDS011;19136;47.032;15.502;2023-03-22T12:29:44;5.53;;;2.28;;
32780;SDS011;19136;47.032;15.502;2023-03-22T12:32:16;5.25;;;2.80;;
32780;SDS011;19136;47.032;15.502;2023-03-22T12:34:47;6.50;;;2.63;;
32780;SDS011;19136;47.032;15.502;2023-03-22T12:37:16;4.57;;;2.38;;
32780;SDS011;19136;47.032;15.502;2023-03-22T12:39:49;7.47;;;2.38;;
32780;SDS011;19136;47.032;15.502;2023-03-22T12:42:22;4.00;;;1.98;;
32780;SDS011;19136;47.032;15.502;2023-03-22T12:44:51;10.27;;;2.30;;
32780;SDS011;19136;47.032;15.502;2023-03-22T12:47:30;4.50;;;2.10;;
32780;SDS011;19136;47.032;15.502;2023-03-22T12:50:02;4.55;;;2.08;;
32780;SDS011;19136;47.032;15.502;2023-03-22T12:52:32;6.47;;;2.00;;
32780;SDS011;19136;47.032;15.502;2023-03-22T12:55:01;4.45;;;1.50;;
32780;SDS011;19136;47.032;15.502;2023-03-22T12:57:28;3.33;;;1.63;;
32780;SDS011;19136;47.032;15.502;2023-03-22T12:59:55;5.97;;;2.25;;
32780;SDS011;19136;47.032;15.502;2023-03-22T13:02:26;9.18;;;1.45;;
32780;SDS011;19136;47.032;15.502;2023-03-22T13:04:55;2.50;;;1.10;;
32780;SDS011;19136;47.032;15.502;2023-03-22T13:21:20;10.40;;;1.50;;
32780;SDS011;19136;47.032;15.502;2023-03-22T13:29:10;4.82;;;1.52;;
32780;SDS011;19136;47.032;15.502;2023-03-22T13:37:28;2.58;;;1.80;;
32780;SDS011;19136;47.032;15.502;2023-03-22T13:40:00;6.60;;;2.22;;
32780;SDS011;19136;47.032;15.502;2023-03-22T13:42:39;3.45;;;1.55;;
32780;SDS011;19136;47.032;15.502;2023-03-22T13:45:18;3.35;;;1.60;;
32780;SDS011;19136;47.032;15.502;2023-03-22T13:48:09;6.90;;;1.40;;
32780;SDS011;19136;47.032;15.502;2023-03-22T13:50:36;5.47;;;1.40;;
32780;SDS011;19136;47.032;15.502;2023-03-22T13:53:04;4.78;;;1.30;;
32780;SDS011;19136;47.032;15.502;2023-03-22T14:01:13;2.03;;;1.30;;
32780;SDS011;19136;47.032;15.502;2023-03-22T14:03:41;12.27;;;1.80;;
32780;SDS011;19136;47.032;15.502;2023-03-22T14:06:13;4.82;;;1.38;;
32780;SDS011;19136;47.032;15.502;2023-03-22T14:08:56;3.33;;;1.67;;
32780;SDS011;19136;47.032;15.502;2023-03-22T14:11:25;2.50;;;1.52;;
32780;SDS011;19136;47.032;15.502;2023-03-22T14:13:56;2.28;;;1.10;;
32780;SDS011;19136;47.032;15.502;2023-03-22T14:16:30;6.45;;;1.20;;
32780;SDS011;19136;47.032;15.502;2023-03-22T14:18:59;3.97;;;1.50;;
32780;SDS011;19136;47.032;15.502;2023-03-22T14:21:30;3.17;;;1.80;;
32780;SDS011;19136;47.032;15.502;2023-03-22T14:23:57;2.80;;;1.50;;
32780;SDS011;19136;47.032;15.502;2023-03-22T14:28:52;3.45;;;1.40;;
32780;SDS011;19136;47.032;15.502;2023-03-22T14:31:24;1.75;;;1.10;;
32780;SDS011;19136;47.032;15.502;2023-03-22T14:33:53;5.72;;;1.15;;
32780;SDS011;19136;47.032;15.502;2023-03-22T14:36:20;2.30;;;1.10;;
32780;SDS011;19136;47.032;15.502;2023-03-22T14:38:47;3.33;;;1.20;;
32780;SDS011;19136;47.032;15.502;2023-03-22T14:41:18;7.57;;;1.27;;
32780;SDS011;19136;47.032;15.502;2023-03-22T14:43:49;8.38;;;1.80;;
32780;SDS011;19136;47.032;15.502;2023-03-22T14:46:25;9.00;;;2.97;;
32780;SDS011;19136;47.032;15.502;2023-03-22T14:48:57;7.38;;;1.90;;
32780;SDS011;19136;47.032;15.502;2023-03-22T14:53:57;6.47;;;2.00;;
32780;SDS011;19136;47.032;15.502;2023-03-22T14:58:53;5.20;;;1.88;;
32780;SDS011;19136;47.032;15.502;2023-03-22T15:01:24;2.97;;;1.65;;
32780;SDS011;19136;47.032;15.502;2023-03-22T15:03:56;4.43;;;1.70;;
32780;SDS011;19136;47.032;15.502;2023-03-22T15:06:25;3.33;;;1.70;;
32780;SDS011;19136;47.032;15.502;2023-03-22T15:08:52;8.95;;;1.92;;
32780;SDS011;19136;47.032;15.502;2023-03-22T15:11:18;3.75;;;1.80;;
32780;SDS011;19136;47.032;15.502;2023-03-22T15:13:45;7.60;;;1.80;;
32780;SDS011;19136;47.032;15.502;2023-03-22T15:16:18;2.78;;;1.70;;
32780;SDS011;19136;47.032;15.502;2023-03-22T15:18:46;6.45;;;1.85;;
32780;SDS011;19136;47.032;15.502;2023-03-22T15:21:13;4.95;;;2.45;;
32780;SDS011;19136;47.032;15.502;2023-03-22T15:23:45;2.70;;;1.90;;
32780;SDS011;19136;47.032;15.502;2023-03-22T15:26:17;11.45;;;2.05;;
32780;SDS011;19136;47.032;15.502;2023-03-22T15:28:48;3.58;;;2.05;;
32780;SDS011;19136;47.032;15.502;2023-03-22T15:31:20;6.22;;;2.30;;
32780;SDS011;19136;47.032;15.502;2023-03-22T15:33:52;8.82;;;1.90;;
32780;SDS011;19136;47.032;15.502;2023-03-22T15:36:19;4.18;;;1.83;;
32780;SDS011;19136;47.032;15.502;2023-03-22T15:38:46;3.95;;;1.95;;
32780;SDS011;19136;47.032;15.502;2023-03-22T15:44:21;8.90;;;2.30;;
32780;SDS011;19136;47.032;15.502;2023-03-22T15:46:54;5.78;;;2.22;;
32780;SDS011;19136;47.032;15.502;2023-03-22T15:51:53;2.58;;;2.03;;
32780;SDS011;19136;47.032;15.502;2023-03-22T15:54:29;8.27;;;2.00;;
32780;SDS011;19136;47.032;15.502;2023-03-22T15:57:06;4.07;;;2.67;;
32780;SDS011;19136;47.032;15.502;2023-03-22T16:02:29;4.03;;;2.78;;
32780;SDS011;19136;47.032;15.502;2023-03-22T16:04:56;5.88;;;2.80;;
32780;SDS011;19136;47.032;15.502;2023-03-22T16:07:23;5.40;;;2.90;;
32780;SDS011;19136;47.032;15.502;2023-03-22T16:09:50;4.95;;;2.88;;
32780;SDS011;19136;47.032;15.502;2023-03-22T16:12:17;3.67;;;2.50;;
32780;SDS011;19136;47.032;15.502;2023-03-22T16:14:42;5.47;;;2.92;;
32780;SDS011;19136;47.032;15.502;2023-03-22T16:17:19;8.25;;;3.17;;
32780;SDS011;19136;47.032;15.502;2023-03-22T16:19:46;4.43;;;3.22;;
32780;SDS011;19136;47.032;15.502;2023-03-22T16:22:13;4.95;;;2.67;;
32780;SDS011;19136;47.032;15.502;2023-03-22T16:24:39;12.05;;;3.00;;
32780;SDS011;19136;47.032;15.502;2023-03-22T16:27:11;11.07;;;2.95;;
32780;SDS011;19136;47.032;15.502;2023-03-22T16:29:38;7.63;;;3.30;;
32780;SDS011;19136;47.032;15.502;2023-03-22T16:32:04;11.27;;;3.40;;
32780;SDS011;19136;47.032;15.502;2023-03-22T16:34:30;9.35;;;3.22;;
32780;SDS011;19136;47.032;15.502;2023-03-22T16:36:55;8.32;;;3.05;;
32780;SDS011;19136;47.032;15.502;2023-03-22T16:39:22;11.35;;;3.42;;
32780;SDS011;19136;47.032;15.502;2023-03-22T16:41:48;6.75;;;2.60;;
32780;SDS011;19136;47.032;15.502;2023-03-22T16:44:15;4.70;;;3.10;;
32780;SDS011;19136;47.032;15.502;2023-03-22T16:46:42;6.60;;;3.95;;